Aeroporto :
LOGIN :

Iscrizione | Disclaimer

   EN    FR    IT 

 










Sommario :    VFR   VFR Marginale   IFR   IFR Intensivo   IFR Molto Intensivo
Visibilità : 
Base nubi : 
>= 8 km
>= 3000ft
5 / 8 km
1000 / 3000 ft
1500m / 5 km
500 / 1000 ft
800 / 1500m
200 / 500 ft
< 800m
< 200 ft
Simboli :   Temporali  Nebbia  Neve Forte  Precipitazioni Forti  Vento > 20 kt
SIGMETs :   Varie  Temporali  Ghiacco  Turbolenza  Onda orograficha  Ceneri Vulcaniche






- Altitudine del aeroporto : 598 ft
- Codice IATA : BQH


EGKB - Biggin Hill

ULTIMO METAR :
  • 301520Z 20011KT 160V230 9999 SCT035 17/08 Q1012

METARs OBSOLETI :
  • 301450Z 19014KT 9999 SCT035 17/08 Q1012
  • 301420Z 16010KT 9999 SCT030 17/10 Q1012
  • 301350Z 17010KT 9999 FEW025 16/10 Q1012
  • 301320Z 18011KT 150V230 9999 FEW030 16/09 Q1012
  • 301250Z 18011KT 9999 FEW030 SCT070TCU 16/09 Q1012

TAF TAF EGKB
Valido dal 30 a 15 ore il 30 a 22 ore UTC


301400Z 3015/3022 19009KT 9999 SCT035
TEMPO 3015/3020 8000 SHRA
PROB30
TEMPO 3015/3019 4000 +SHRA BKN014CB



MetMap, La meteo Aeronautica in un colpo d'occhio ! - Copyright ORBIFLY Dicembre 2007 - Disclaimer

ORBIFLY MET'MAP TEAM :

Programmazione e sviluppo : Alexandra Zaïnal
Concezione : Baudouin d'Aumeries
Supporto tecnico e logistico : Manuel Goepfert
Aiuto : Marc-Olivier Méhu
Aiuto per la traduzione : Arnaldo La Scala




FONTI E CREDITI :

   NOAA